createdAt,value
2019-01-30T20:53:16.651Z,31.51
2019-01-30T20:54:16.709Z,31.30
2019-01-30T20:55:16.620Z,30.61
2019-01-30T20:56:16.689Z,30.41
2019-01-30T20:57:16.615Z,30.61
2019-01-30T20:58:16.589Z,30.61
2019-01-30T22:00:56.204Z,27.64
2019-01-30T22:01:55.388Z,29.82
2019-01-30T22:02:55.481Z,34.53
2019-01-30T22:03:55.264Z,38.25
2019-01-30T22:04:55.506Z,42.79
2019-01-30T22:05:55.491Z,46.00
2019-01-30T22:06:55.356Z,48.88
2019-01-30T22:08:01.095Z,52.93
2019-01-30T22:08:56.732Z,56.10
2019-01-30T22:09:55.203Z,58.67
2019-01-30T22:10:55.240Z,60.83
2019-01-30T22:11:55.177Z,63.28
2019-01-30T22:12:55.177Z,65.31
2019-01-30T22:13:57.207Z,66.93
2019-01-30T22:14:55.150Z,68.21
2019-01-30T22:15:55.196Z,69.81
2019-01-30T22:16:55.155Z,70.88
2019-01-30T22:17:55.187Z,71.85
2019-01-30T22:18:55.141Z,73.03
2019-01-30T22:19:55.101Z,73.97
2019-01-30T22:20:55.081Z,74.52
2019-01-30T22:21:55.111Z,75.18
2019-01-30T22:22:55.060Z,76.12
2019-01-30T22:24:05.232Z,77.17
2019-01-30T22:24:56.039Z,77.20
2019-01-30T22:25:55.027Z,77.94
2019-01-30T22:26:55.052Z,78.49
2019-01-30T22:27:55.036Z,79.02
2019-01-30T22:28:55.004Z,79.26
2019-01-30T22:29:55.027Z,79.54
2019-01-30T22:30:55.056Z,79.79
2019-01-30T22:31:55.039Z,80.41
2019-01-30T22:32:54.957Z,80.83
2019-01-30T22:33:54.938Z,80.73
2019-01-30T22:34:54.949Z,80.73
2019-01-30T22:35:54.927Z,81.35
2019-01-30T22:36:54.949Z,81.39
2019-01-30T22:37:54.933Z,81.70
2019-01-30T22:38:55.124Z,82.19
2019-01-30T22:39:54.892Z,82.02
2019-01-30T22:40:54.866Z,82.02
2019-01-30T22:41:54.881Z,82.12
2019-01-30T22:42:54.853Z,82.75
2019-01-30T22:43:54.826Z,82.75
2019-01-30T22:44:54.834Z,83.06
2019-01-30T22:45:54.813Z,83.10
2019-01-30T22:46:54.828Z,83.80
2019-01-30T22:47:54.794Z,83.83
2019-01-30T22:48:54.778Z,83.62
2019-01-30T22:49:54.763Z,83.62
2019-01-30T22:50:54.758Z,83.83
2019-01-30T22:51:54.791Z,84.15
2019-01-30T22:52:54.733Z,84.15
2019-01-30T22:53:54.721Z,84.15
2019-01-30T22:54:54.709Z,84.46
2019-01-30T22:55:54.706Z,84.15
2019-01-30T22:56:54.717Z,84.56
2019-01-30T22:57:54.673Z,84.88
2019-01-30T22:58:54.777Z,84.88
2019-01-30T22:59:54.654Z,85.30
2019-01-30T23:00:54.647Z,85.30
2019-01-30T23:01:54.661Z,85.19
2019-01-30T23:02:54.632Z,85.30
2019-01-30T23:03:54.612Z,85.09
2019-01-30T23:04:54.604Z,85.51
2019-01-30T23:05:54.771Z,86.14
2019-01-30T23:06:54.679Z,85.44
2019-01-30T23:07:54.594Z,85.55
2019-01-30T23:08:54.577Z,85.65
2019-01-30T23:09:57.798Z,85.65
2019-01-30T23:10:54.623Z,86.18
2019-01-30T23:11:57.535Z,85.44
2019-01-30T23:12:54.634Z,85.24
2019-01-30T23:13:54.590Z,85.86
2019-01-30T23:14:54.582Z,85.34
2019-01-30T23:15:54.547Z,85.72
2019-01-30T23:16:54.602Z,85.34
2019-01-30T23:17:54.616Z,86.07
2019-01-30T23:18:55.514Z,86.07
2019-01-30T23:19:54.494Z,85.86
2019-01-30T23:20:54.504Z,86.07
2019-01-30T23:21:54.499Z,86.07
2019-01-30T23:22:54.480Z,86.18
2019-01-30T23:23:54.536Z,86.18
2019-01-30T23:24:54.512Z,86.18
2019-01-30T23:25:54.462Z,86.28
2019-01-30T23:26:54.457Z,86.28
2019-01-30T23:27:54.462Z,86.07
2019-01-30T23:28:54.454Z,86.07
2019-01-30T23:29:54.446Z,86.49
2019-01-30T23:30:54.411Z,86.60
2019-01-30T23:31:54.385Z,86.28
2019-01-30T23:32:54.441Z,86.49
2019-01-30T23:33:54.387Z,86.18
2019-01-30T23:34:54.337Z,86.66
2019-01-30T23:35:54.401Z,86.87
2019-01-30T23:36:54.452Z,86.38
2019-01-30T23:37:54.481Z,86.49
2019-01-30T23:38:54.328Z,86.80
2019-01-30T23:39:54.256Z,85.97
2019-01-30T23:40:54.287Z,87.01
2019-01-30T23:41:54.422Z,86.80
2019-01-30T23:42:54.296Z,86.80
2019-01-30T23:43:54.306Z,86.80
2019-01-30T23:44:54.327Z,86.70
2019-01-30T23:45:54.198Z,86.60
2019-01-30T23:46:54.179Z,86.70
2019-01-30T23:47:54.256Z,86.91
2019-01-30T23:48:54.161Z,86.80
2019-01-30T23:49:54.193Z,87.01
2019-01-30T23:50:54.265Z,86.91
2019-01-30T23:51:54.228Z,87.23
2019-01-30T23:52:54.382Z,86.80
2019-01-30T23:53:54.162Z,86.80
2019-01-30T23:54:54.219Z,86.80
2019-01-30T23:55:54.158Z,86.91
2019-01-30T23:56:54.175Z,86.91
2019-01-30T23:57:54.241Z,87.23
2019-01-30T23:58:54.121Z,87.23
2019-01-30T23:59:54.082Z,87.33
